Time;durP1;ratioP1;P1;durP2;ratioP2;P2;SDS_P1;SDS_P2;PMS_P1;PMS_P2;Temp;Humidity;BMP_temperature;BMP_pressure;BME280_temperature;BME280_humidity;BME280_pressure;Samples;Min_cycle;Max_cycle;Signal;HPM_P1;HPM_P2
2021/11/06 00:01:50;;;;;;;25.17;14.07;;;6.40;93.50;;;;;;5076419;28;20477;-37
2021/11/06 00:04:16;;;;;;;24.95;14.13;;;6.40;93.60;;;;;;5076282;28;20028;-37
2021/11/06 00:06:45;;;;;;;32.25;14.48;;;6.40;93.60;;;;;;5076522;28;20500;-37
2021/11/06 00:09:12;;;;;;;34.28;14.60;;;6.40;93.70;;;;;;5077233;28;20055;-38
2021/11/06 00:11:38;;;;;;;29.45;13.93;;;6.40;93.60;;;;;;5077139;28;20020;-37
2021/11/06 00:14:03;;;;;;;31.45;15.23;;;6.40;93.60;;;;;;5076053;28;20086;-37
2021/11/06 00:16:29;;;;;;;30.13;14.57;;;6.30;93.70;;;;;;5075784;28;20035;-37
2021/11/06 00:18:55;;;;;;;34.78;15.27;;;6.30;93.70;;;;;;5076918;28;20067;-37
2021/11/06 00:21:22;;;;;;;22.48;14.85;;;6.30;93.70;;;;;;5077047;28;20029;-37
2021/11/06 00:23:47;;;;;;;29.23;14.48;;;6.30;93.80;;;;;;5076843;28;20036;-37
2021/11/06 00:26:13;;;;;;;30.13;14.68;;;6.20;93.80;;;;;;5075655;28;20024;-37
2021/11/06 00:28:39;;;;;;;30.40;14.32;;;6.30;93.80;;;;;;5076575;28;20024;-37
2021/11/06 00:31:04;;;;;;;27.02;14.93;;;6.30;93.90;;;;;;5076667;28;20027;-37
2021/11/06 00:33:30;;;;;;;24.40;14.57;;;6.20;93.80;;;;;;5077164;28;20016;-37
2021/11/06 00:35:56;;;;;;;28.77;13.82;;;6.20;93.80;;;;;;5076695;28;20059;-38
2021/11/06 00:38:21;;;;;;;29.15;14.73;;;6.20;93.90;;;;;;5076449;28;20388;-37
2021/11/06 00:40:47;;;;;;;32.22;14.48;;;6.20;93.80;;;;;;5076597;28;20029;-37
2021/11/06 00:43:13;;;;;;;37.40;16.42;;;6.20;93.90;;;;;;5076466;28;20052;-37
2021/11/06 00:45:38;;;;;;;23.13;13.13;;;6.20;93.90;;;;;;5075142;28;20027;-37
2021/11/06 00:48:04;;;;;;;28.88;12.73;;;6.10;93.90;;;;;;5074707;28;20021;-37
2021/11/06 00:50:30;;;;;;;22.50;12.68;;;6.10;93.90;;;;;;5076083;28;20074;-38
2021/11/06 00:52:56;;;;;;;25.73;13.15;;;6.10;94.10;;;;;;5076204;28;20021;-38
2021/11/06 00:55:22;;;;;;;27.67;12.60;;;6.10;94.10;;;;;;5076389;28;20020;-37
2021/11/06 00:57:48;;;;;;;23.27;12.52;;;6.10;93.90;;;;;;5076379;28;20024;-37
2021/11/06 01:00:15;;;;;;;22.23;13.68;;;6.10;94.00;;;;;;5074805;28;20380;-45
2021/11/06 01:02:41;;;;;;;19.52;11.70;;;6.10;93.90;;;;;;5076243;28;20496;-37
2021/11/06 01:05:09;;;;;;;28.58;14.07;;;6.10;93.90;;;;;;5076319;28;20021;-37
2021/11/06 01:07:35;;;;;;;24.50;12.07;;;6.10;93.80;;;;;;5074868;28;20043;-37
2021/11/06 01:10:01;;;;;;;34.38;14.70;;;6.00;93.80;;;;;;5076236;28;20021;-37
2021/11/06 01:12:27;;;;;;;27.25;12.55;;;6.10;93.90;;;;;;5075829;28;20025;-38
2021/11/06 01:14:53;;;;;;;23.70;12.82;;;6.00;93.80;;;;;;5075931;28;20044;-37
2021/11/06 01:17:18;;;;;;;39.33;15.57;;;6.00;93.80;;;;;;5076030;28;20017;-37
2021/11/06 01:19:44;;;;;;;27.58;14.48;;;6.10;93.90;;;;;;5075614;28;20032;-38
2021/11/06 01:22:10;;;;;;;25.88;14.60;;;6.00;93.70;;;;;;5075906;28;20376;-37
2021/11/06 01:24:36;;;;;;;32.20;13.75;;;6.10;93.70;;;;;;5076227;28;20093;-37
2021/11/06 01:27:02;;;;;;;31.90;14.77;;;6.00;93.50;;;;;;5075746;28;20103;-37
2021/11/06 01:29:28;;;;;;;29.63;15.68;;;6.00;93.50;;;;;;5074419;28;20103;-37
2021/11/06 01:31:53;;;;;;;29.73;15.80;;;6.00;93.60;;;;;;5074303;28;20103;-37
2021/11/06 01:34:19;;;;;;;28.17;16.13;;;6.00;93.60;;;;;;5074288;28;20129;-37
2021/11/06 01:36:45;;;;;;;33.50;14.45;;;6.00;93.70;;;;;;5074378;28;20103;-37
2021/11/06 01:39:11;;;;;;;25.05;14.68;;;5.90;93.70;;;;;;5074162;28;20456;-37
2021/11/06 01:41:36;;;;;;;28.73;13.60;;;5.80;93.80;;;;;;5073986;28;20591;-37
2021/11/06 01:44:02;;;;;;;26.27;14.25;;;5.80;94.00;;;;;;5072727;28;20111;-37
2021/11/06 01:46:29;;;;;;;32.33;14.32;;;5.80;94.10;;;;;;5072669;28;20429;-37
2021/11/06 01:48:56;;;;;;;30.65;14.55;;;5.90;94.00;;;;;;5074196;28;20420;-37
2021/11/06 01:51:22;;;;;;;28.90;14.25;;;5.90;94.10;;;;;;5074112;28;20532;-37
2021/11/06 01:53:49;;;;;;;22.25;12.93;;;5.80;94.20;;;;;;5074174;28;20078;-37
2021/11/06 01:56:15;;;;;;;25.80;13.73;;;5.80;94.20;;;;;;5072499;28;20098;-37
2021/11/06 01:58:43;;;;;;;33.55;16.38;;;5.80;94.40;;;;;;5072656;28;20029;-37
2021/11/06 02:01:09;;;;;;;32.80;15.30;;;5.80;94.30;;;;;;5073819;28;20110;-38
2021/11/06 02:03:35;;;;;;;24.77;14.63;;;5.80;94.40;;;;;;5073460;28;20024;-52
2021/11/06 02:06:01;;;;;;;24.80;14.82;;;5.70;94.40;;;;;;5073194;28;20139;-49
2021/11/06 02:08:27;;;;;;;34.17;15.88;;;5.80;94.50;;;;;;5073428;28;20060;-47
2021/11/06 02:10:53;;;;;;;30.27;16.35;;;5.80;94.50;;;;;;5073463;28;20419;-47
2021/11/06 02:13:19;;;;;;;33.33;14.75;;;5.80;94.50;;;;;;5073524;28;20096;-48
2021/11/06 02:15:46;;;;;;;37.10;17.60;;;5.80;94.50;;;;;;5073272;28;20369;-48
2021/11/06 02:18:12;;;;;;;30.45;15.32;;;5.80;94.50;;;;;;5071718;28;20070;-49
2021/11/06 02:20:38;;;;;;;32.33;16.10;;;5.80;94.60;;;;;;5073378;28;20079;-50
2021/11/06 02:23:04;;;;;;;39.70;20.10;;;5.80;94.60;;;;;;5073404;28;20108;-48
2021/11/06 02:25:30;;;;;;;28.90;17.00;;;5.80;94.50;;;;;;5073326;28;20024;-51
2021/11/06 02:27:55;;;;;;;38.47;18.52;;;5.80;94.50;;;;;;5072782;28;20389;-51
2021/11/06 02:30:21;;;;;;;34.38;17.38;;;5.80;94.50;;;;;;5073318;28;20020;-48
2021/11/06 02:32:52;;;;;;;37.47;17.20;;;5.80;94.50;;;;;;5072023;28;20021;-49
2021/11/06 02:35:18;;;;;;;41.78;19.73;;;5.70;94.50;;;;;;5073522;28;20488;-47
2021/11/06 02:37:44;;;;;;;37.97;20.02;;;5.80;94.50;;;;;;5073778;28;20025;-49
2021/11/06 02:40:11;;;;;;;38.05;18.70;;;5.80;94.60;;;;;;5074003;28;20029;-49
2021/11/06 02:42:36;;;;;;;37.10;19.55;;;5.70;94.60;;;;;;5073290;28;20521;-49
2021/11/06 02:45:07;;;;;;;37.40;20.30;;;5.80;94.60;;;;;;5073539;28;20063;-48
2021/11/06 02:47:32;;;;;;;38.97;21.10;;;5.80;94.50;;;;;;5073049;28;20172;-49
2021/11/06 02:49:58;;;;;;;44.40;20.23;;;5.80;94.50;;;;;;5073201;28;20504;-48
2021/11/06 02:52:24;;;;;;;45.20;21.17;;;5.90;94.40;;;;;;5073006;28;20028;-51
2021/11/06 02:54:50;;;;;;;40.78;21.17;;;5.80;94.20;;;;;;5073315;28;20131;-49
2021/11/06 02:57:15;;;;;;;42.17;18.50;;;5.80;94.30;;;;;;5073127;28;20480;-50
2021/11/06 02:59:41;;;;;;;38.50;19.77;;;5.90;94.30;;;;;;5073418;28;20104;-50
2021/11/06 03:02:07;;;;;;;39.90;15.48;;;6.00;94.20;;;;;;5071972;28;20031;-49
2021/11/06 03:04:37;;;;;;;36.47;19.73;;;6.00;94.10;;;;;;5072840;28;20028;-48
2021/11/06 03:07:05;;;;;;;33.38;16.20;;;6.00;94.00;;;;;;5072796;28;20054;-50
2021/11/06 03:09:31;;;;;;;33.85;17.00;;;5.90;93.90;;;;;;5072927;28;20036;-49
2021/11/06 03:11:58;;;;;;;31.45;16.60;;;6.00;93.80;;;;;;5073106;28;20432;-51
2021/11/06 03:14:25;;;;;;;33.80;16.58;;;5.90;93.80;;;;;;5072929;28;20074;-47
2021/11/06 03:16:51;;;;;;;33.15;17.48;;;5.90;93.70;;;;;;5072714;28;20063;-47
2021/11/06 03:19:17;;;;;;;30.35;17.98;;;5.80;93.60;;;;;;5072746;28;20052;-49
2021/11/06 03:21:43;;;;;;;49.22;21.50;;;5.90;93.60;;;;;;5073523;28;20032;-48
2021/11/06 03:24:08;;;;;;;36.17;18.20;;;6.00;93.30;;;;;;5073281;28;20058;-48
2021/11/06 03:26:34;;;;;;;35.65;19.50;;;5.80;93.00;;;;;;5073641;28;20104;-48
2021/11/06 03:29:00;;;;;;;42.72;18.10;;;5.80;93.10;;;;;;5073240;28;20029;-49
2021/11/06 03:31:25;;;;;;;39.75;17.00;;;5.80;93.00;;;;;;5073213;28;20031;-51
2021/11/06 03:33:51;;;;;;;36.17;18.25;;;5.80;93.00;;;;;;5072721;28;20492;-49
2021/11/06 03:36:17;;;;;;;38.75;18.45;;;5.80;92.90;;;;;;5072572;28;20029;-51
2021/11/06 03:38:42;;;;;;;33.50;17.80;;;5.80;93.00;;;;;;5072437;28;20044;-50
2021/11/06 03:41:09;;;;;;;38.47;16.65;;;5.80;92.90;;;;;;5072897;28;20114;-49
2021/11/06 03:43:35;;;;;;;41.13;18.38;;;5.80;92.90;;;;;;5072950;28;20033;-47
2021/11/06 03:46:00;;;;;;;31.50;16.45;;;5.80;92.70;;;;;;5073726;28;20024;-48
2021/11/06 03:48:28;;;;;;;42.00;17.60;;;5.80;92.80;;;;;;5072714;28;20377;-49
2021/11/06 03:50:53;;;;;;;47.92;19.13;;;5.80;92.70;;;;;;5073918;28;20078;-47
2021/11/06 03:53:19;;;;;;;32.50;16.38;;;5.80;92.50;;;;;;5073208;28;20422;-48
2021/11/06 03:55:45;;;;;;;31.65;15.13;;;5.80;92.50;;;;;;5073413;28;20078;-49
2021/11/06 03:58:10;;;;;;;37.38;16.02;;;5.90;92.40;;;;;;5073172;28;20031;-51
2021/11/06 04:00:36;;;;;;;32.47;14.90;;;5.90;92.40;;;;;;5073008;28;20385;-48
2021/11/06 04:03:02;;;;;;;28.00;16.00;;;6.10;92.20;;;;;;5072724;28;20438;-48
2021/11/06 04:05:27;;;;;;;31.55;14.95;;;6.20;91.70;;;;;;5072460;28;20125;-48
2021/11/06 04:07:53;;;;;;;31.75;15.73;;;6.20;91.30;;;;;;5072860;28;20029;-52
2021/11/06 04:10:18;;;;;;;34.15;15.57;;;6.30;91.20;;;;;;5072311;28;20025;-48
2021/11/06 04:12:45;;;;;;;29.85;14.15;;;6.20;91.10;;;;;;5071030;28;20028;-47
2021/11/06 04:15:11;;;;;;;43.40;16.77;;;6.30;91.10;;;;;;5072421;28;20415;-49
2021/11/06 04:17:38;;;;;;;32.80;16.73;;;6.30;90.80;;;;;;5072088;28;20055;-48
2021/11/06 04:20:07;;;;;;;32.53;13.93;;;6.30;90.60;;;;;;5072766;28;20037;-37
2021/11/06 04:22:33;;;;;;;36.55;16.17;;;6.20;90.80;;;;;;5076362;28;20443;-37
2021/11/06 04:24:58;;;;;;;29.35;12.93;;;6.20;91.10;;;;;;5077055;28;20059;-38
2021/11/06 04:27:24;;;;;;;28.98;12.90;;;6.30;90.90;;;;;;5076395;28;20540;-38
2021/11/06 04:29:50;;;;;;;26.13;12.60;;;6.20;91.00;;;;;;5076764;28;20407;-37
2021/11/06 04:32:16;;;;;;;29.80;12.27;;;6.30;90.80;;;;;;5076389;28;20099;-45
2021/11/06 04:34:41;;;;;;;31.45;12.95;;;6.30;90.70;;;;;;5076195;28;20051;-37
2021/11/06 04:37:08;;;;;;;14.68;7.97;;;6.40;90.40;;;;;;5076285;28;20028;-39
2021/11/06 04:39:33;;;;;;;23.55;11.30;;;6.40;90.20;;;;;;5076358;28;20016;-38
2021/11/06 04:42:01;;;;;;;23.80;11.05;;;6.40;90.00;;;;;;5076331;28;20032;-38
2021/11/06 04:44:27;;;;;;;23.80;10.77;;;6.40;90.00;;;;;;5076352;28;20063;-38
2021/11/06 04:46:52;;;;;;;24.58;12.10;;;6.50;89.60;;;;;;5057727;28;20036;-38
2021/11/06 04:49:18;;;;;;;23.50;12.18;;;6.50;89.70;;;;;;5076788;28;20048;-38
2021/11/06 04:51:44;;;;;;;21.05;11.93;;;6.50;89.40;;;;;;5076085;28;20465;-38
2021/11/06 04:54:10;;;;;;;21.85;11.88;;;6.50;89.70;;;;;;5076108;28;20457;-38
2021/11/06 04:56:36;;;;;;;22.98;11.25;;;6.50;89.60;;;;;;5074066;28;20028;-36
2021/11/06 04:59:02;;;;;;;19.35;8.85;;;6.60;89.10;;;;;;5075446;28;20021;-36
2021/11/06 05:01:28;;;;;;;23.27;11.65;;;6.50;89.30;;;;;;5076213;28;20043;-36
2021/11/06 05:03:54;;;;;;;22.67;11.35;;;6.60;89.20;;;;;;5075118;28;20025;-36
2021/11/06 05:06:19;;;;;;;23.77;11.88;;;6.60;88.70;;;;;;5075129;28;20067;-36
2021/11/06 05:08:45;;;;;;;22.15;11.43;;;6.50;88.90;;;;;;5075413;28;20029;-37
2021/11/06 05:11:10;;;;;;;24.00;12.13;;;6.50;88.80;;;;;;5075504;28;20388;-37
2021/11/06 05:13:36;;;;;;;21.98;12.45;;;6.50;89.10;;;;;;5075645;28;20016;-37
2021/11/06 05:16:02;;;;;;;18.50;9.27;;;6.50;88.90;;;;;;5075394;28;20047;-38
2021/11/06 05:18:27;;;;;;;19.38;10.68;;;6.70;88.20;;;;;;5075826;28;20050;-37
2021/11/06 05:20:54;;;;;;;14.27;8.02;;;6.60;88.30;;;;;;5074874;28;20016;-36
2021/11/06 05:23:20;;;;;;;15.15;8.07;;;6.50;88.20;;;;;;5074894;28;20025;-36
2021/11/06 05:25:46;;;;;;;17.83;9.43;;;6.60;88.00;;;;;;5074661;28;20035;-37
2021/11/06 05:28:13;;;;;;;15.80;8.80;;;6.70;87.70;;;;;;5074879;28;20016;-36
2021/11/06 05:30:40;;;;;;;18.33;9.88;;;6.70;87.70;;;;;;5074812;28;20461;-36
2021/11/06 05:33:05;;;;;;;15.55;8.50;;;6.70;87.80;;;;;;5074758;28;20020;-36
2021/11/06 05:35:31;;;;;;;16.23;8.98;;;6.60;87.80;;;;;;5074847;28;20044;-37
2021/11/06 05:37:57;;;;;;;15.32;7.70;;;6.70;88.00;;;;;;5075048;28;20020;-36
2021/11/06 05:40:23;;;;;;;20.60;9.23;;;6.60;88.00;;;;;;5074751;28;20056;-36
2021/11/06 05:42:49;;;;;;;16.20;8.52;;;6.60;87.90;;;;;;5074772;28;20024;-36
2021/11/06 05:45:15;;;;;;;18.80;8.63;;;6.70;87.60;;;;;;5075013;28;20028;-36
2021/11/06 05:47:40;;;;;;;13.57;7.65;;;6.70;87.80;;;;;;5074306;28;20181;-36
2021/11/06 05:50:09;;;;;;;15.50;8.38;;;6.70;87.60;;;;;;5074349;28;20081;-36
2021/11/06 05:52:36;;;;;;;18.23;7.57;;;6.70;87.40;;;;;;5074226;28;20032;-36
2021/11/06 05:55:07;;;;;;;15.90;9.85;;;6.70;87.40;;;;;;5074076;28;20020;-37
2021/11/06 05:57:34;;;;;;;16.98;10.38;;;6.70;87.40;;;;;;5074223;28;20031;-36
2021/11/06 06:00:05;;;;;;;17.23;9.32;;;6.80;87.20;;;;;;5075116;28;20100;-36
2021/11/06 06:02:31;;;;;;;;;;;6.70;87.00;;;;;;5074447;28;20024;-37
2021/11/06 06:04:57;;;;;;;18.58;10.35;;;6.80;87.00;;;;;;5074138;28;19926;-36
2021/11/06 06:07:22;;;;;;;25.38;12.95;;;6.80;86.70;;;;;;5074013;28;20099;-37
2021/11/06 06:09:48;;;;;;;20.73;10.75;;;6.80;86.90;;;;;;5073761;28;20412;-37
2021/11/06 06:12:14;;;;;;;19.65;10.75;;;6.80;86.40;;;;;;5073564;28;20024;-36
2021/11/06 06:14:39;;;;;;;22.15;12.82;;;6.80;86.60;;;;;;5073766;28;20460;-37
2021/11/06 06:17:05;;;;;;;23.70;10.32;;;6.70;86.60;;;;;;5073781;28;20028;-37
2021/11/06 06:19:30;;;;;;;16.27;9.35;;;6.70;87.00;;;;;;5073464;28;20074;-37
2021/11/06 06:21:56;;;;;;;18.10;9.93;;;6.80;86.40;;;;;;5073434;28;20028;-38
2021/11/06 06:24:22;;;;;;;14.20;8.50;;;6.80;86.40;;;;;;5074286;28;20035;-38
2021/11/06 06:26:47;;;;;;;17.27;10.07;;;6.80;86.30;;;;;;5073446;28;20120;-38
2021/11/06 06:29:13;;;;;;;13.10;8.93;;;6.80;86.30;;;;;;5071983;28;20417;-37
2021/11/06 06:31:38;;;;;;;21.77;9.63;;;6.80;86.20;;;;;;5073498;28;20031;-38
2021/11/06 06:34:04;;;;;;;18.88;10.57;;;6.80;86.20;;;;;;5073934;28;20028;-38
2021/11/06 06:36:30;;;;;;;20.88;8.68;;;6.80;86.30;;;;;;5074026;28;20046;-37
2021/11/06 06:38:55;;;;;;;15.40;9.13;;;6.80;85.90;;;;;;5073277;28;20056;-37
2021/11/06 06:41:21;;;;;;;18.60;10.35;;;6.80;86.30;;;;;;5073193;28;20058;-37
2021/11/06 06:43:46;;;;;;;17.75;9.57;;;6.80;86.20;;;;;;5072745;28;20027;-37
2021/11/06 06:46:12;;;;;;;16.95;11.52;;;6.80;85.90;;;;;;5074391;28;20082;-37
2021/11/06 06:48:38;;;;;;;21.25;10.95;;;6.80;85.90;;;;;;5073354;28;20068;-37
2021/11/06 06:51:03;;;;;;;22.75;10.13;;;6.80;86.10;;;;;;5073051;28;20103;-37
2021/11/06 06:53:29;;;;;;;27.98;9.85;;;6.80;86.10;;;;;;5073109;28;20027;-37
2021/11/06 06:55:54;;;;;;;21.48;8.82;;;6.70;86.40;;;;;;5073239;28;20020;-38
2021/11/06 06:58:20;;;;;;;19.27;9.80;;;6.80;86.40;;;;;;5073634;28;20456;-38
2021/11/06 07:00:46;;;;;;;14.75;8.55;;;6.80;86.00;;;;;;5072907;28;20024;-37
2021/11/06 07:03:12;;;;;;;21.90;9.45;;;6.90;85.50;;;;;;5073346;28;20028;-38
2021/11/06 07:05:37;;;;;;;17.52;9.45;;;6.80;85.80;;;;;;5072520;28;20048;-38
2021/11/06 07:08:05;;;;;;;15.20;8.60;;;6.90;85.70;;;;;;5072935;28;20040;-37
2021/11/06 07:10:32;;;;;;;17.25;7.60;;;6.90;85.70;;;;;;5073008;28;20020;-37
2021/11/06 07:12:58;;;;;;;26.65;10.75;;;6.80;85.90;;;;;;5072968;28;20027;-37
2021/11/06 07:15:24;;;;;;;17.50;8.80;;;6.90;85.80;;;;;;5073089;28;20048;-37
2021/11/06 07:17:49;;;;;;;18.85;9.75;;;7.10;85.10;;;;;;5072725;28;20119;-37
2021/11/06 07:20:19;;;;;;;15.25;9.10;;;7.10;85.20;;;;;;5072741;28;20124;-37
2021/11/06 07:22:45;;;;;;;18.73;7.95;;;7.10;85.50;;;;;;5072938;28;20017;-37
2021/11/06 07:25:10;;;;;;;22.77;10.48;;;7.10;84.90;;;;;;5072468;28;20025;-38
2021/11/06 07:27:37;;;;;;;18.27;9.45;;;7.20;85.00;;;;;;5073022;28;20054;-38
2021/11/06 07:30:04;;;;;;;13.98;7.68;;;7.30;84.50;;;;;;5072857;28;20081;-37
2021/11/06 07:32:29;;;;;;;16.20;7.45;;;7.30;84.20;;;;;;5073363;28;20452;-38
2021/11/06 07:34:55;;;;;;;20.00;9.65;;;7.20;84.80;;;;;;5072704;28;20120;-37
2021/11/06 07:37:20;;;;;;;16.25;9.55;;;7.10;85.00;;;;;;5073681;28;20482;-36
2021/11/06 07:39:46;;;;;;;20.15;9.00;;;7.10;85.00;;;;;;5073132;28;20134;-36
2021/11/06 07:42:12;;;;;;;19.38;9.10;;;7.10;84.90;;;;;;5072152;28;20029;-37
2021/11/06 07:44:37;;;;;;;18.50;8.27;;;7.30;84.50;;;;;;5073204;28;20032;-38
2021/11/06 07:47:03;;;;;;;20.52;8.45;;;7.30;84.50;;;;;;5071844;28;20033;-38
2021/11/06 07:49:29;;;;;;;24.38;9.27;;;7.20;84.80;;;;;;5071632;28;20075;-37
2021/11/06 07:51:58;;;;;;;26.88;9.55;;;7.30;84.00;;;;;;5073218;28;20033;-37
2021/11/06 07:54:25;;;;;;;21.50;9.90;;;7.30;84.30;;;;;;5072603;28;20017;-37
2021/11/06 07:56:51;;;;;;;14.25;6.78;;;7.20;84.60;;;;;;5075283;28;20029;-38
2021/11/06 07:59:16;;;;;;;16.58;8.65;;;7.30;84.10;;;;;;5076925;28;20400;-37
2021/11/06 08:01:42;;;;;;;18.17;7.95;;;7.30;83.90;;;;;;5075238;28;20073;-38
2021/11/06 08:04:07;;;;;;;18.48;8.57;;;7.30;83.90;;;;;;5076964;28;20024;-37
2021/11/06 08:06:35;;;;;;;16.35;8.18;;;7.20;84.10;;;;;;5075961;28;20051;-37
2021/11/06 08:09:00;;;;;;;14.73;8.68;;;7.30;83.70;;;;;;5075820;28;20017;-37
2021/11/06 08:11:26;;;;;;;14.30;8.85;;;7.30;83.90;;;;;;5074556;28;20032;-36
2021/11/06 08:13:52;;;;;;;20.85;8.25;;;7.40;83.60;;;;;;5075719;28;20029;-37
2021/11/06 08:16:18;;;;;;;13.75;7.75;;;7.60;83.00;;;;;;5075435;28;20123;-37
2021/11/06 08:18:44;;;;;;;15.88;8.63;;;7.50;82.90;;;;;;5075555;28;20028;-36
2021/11/06 08:21:10;;;;;;;13.02;7.45;;;7.70;82.80;;;;;;5075604;28;20381;-36
2021/11/06 08:23:36;;;;;;;17.42;9.38;;;7.70;82.20;;;;;;5076331;28;20033;-37
2021/11/06 08:26:03;;;;;;;14.65;8.07;;;7.60;82.80;;;;;;5075407;28;20112;-37
2021/11/06 08:28:29;;;;;;;18.15;8.75;;;7.60;82.90;;;;;;5076130;28;20143;-41
2021/11/06 08:30:54;;;;;;;14.02;7.88;;;7.70;82.40;;;;;;5075573;28;20463;-37
2021/11/06 08:33:20;;;;;;;18.13;9.27;;;7.70;82.70;;;;;;5075198;28;20020;-37
2021/11/06 08:35:46;;;;;;;17.77;7.70;;;7.80;82.20;;;;;;5075439;28;20028;-37
2021/11/06 08:38:12;;;;;;;17.05;7.50;;;7.80;82.00;;;;;;5074526;28;20020;-37
2021/11/06 08:40:38;;;;;;;17.33;9.15;;;8.00;82.20;;;;;;5075769;28;20024;-36
2021/11/06 08:43:04;;;;;;;15.02;7.43;;;7.90;82.10;;;;;;5075448;28;20051;-37
2021/11/06 08:45:29;;;;;;;13.52;7.65;;;7.90;82.20;;;;;;5075834;28;20032;-37
2021/11/06 08:47:56;;;;;;;10.20;6.60;;;7.80;82.20;;;;;;5075658;28;20037;-37
2021/11/06 08:50:25;;;;;;;12.82;6.55;;;8.00;81.90;;;;;;5075553;28;20032;-37
2021/11/06 08:52:53;;;;;;;18.08;8.43;;;7.90;82.20;;;;;;5075624;28;20032;-37
2021/11/06 08:55:20;;;;;;;18.35;8.77;;;8.10;82.20;;;;;;5075902;28;20043;-37
2021/11/06 08:57:46;;;;;;;18.70;10.77;;;8.30;81.20;;;;;;5073755;28;20036;-38
2021/11/06 09:00:20;;;;;;;17.70;9.57;;;8.30;81.30;;;;;;5073853;28;20029;-38
2021/11/06 09:02:46;;;;;;;17.50;9.32;;;8.30;81.00;;;;;;5075012;28;20036;-37
2021/11/06 09:05:12;;;;;;;19.02;8.80;;;8.40;80.40;;;;;;5074700;28;20025;-37
2021/11/06 09:07:39;;;;;;;18.10;8.57;;;8.40;80.60;;;;;;5074711;28;20032;-37
2021/11/06 09:10:09;;;;;;;12.02;7.90;;;8.30;81.20;;;;;;5074644;28;20043;-37
2021/11/06 09:12:36;;;;;;;14.40;8.25;;;8.40;81.10;;;;;;5074546;28;20039;-37
2021/11/06 09:15:03;;;;;;;16.23;7.50;;;8.40;81.10;;;;;;5074746;28;20028;-37
2021/11/06 09:17:28;;;;;;;16.80;8.52;;;8.40;81.30;;;;;;5074848;28;20029;-37
2021/11/06 09:19:54;;;;;;;13.48;7.22;;;8.40;80.80;;;;;;5074111;28;20024;-37
2021/11/06 09:22:22;;;;;;;10.18;7.05;;;8.40;81.30;;;;;;5073782;28;20036;-37
2021/11/06 09:24:49;;;;;;;12.73;7.95;;;8.40;80.80;;;;;;5074492;28;20032;-37
2021/11/06 09:27:16;;;;;;;15.15;8.15;;;8.30;81.50;;;;;;5074414;28;20058;-39
2021/11/06 09:29:42;;;;;;;14.63;6.68;;;8.40;81.10;;;;;;5074400;28;20531;-38
2021/11/06 09:32:11;;;;;;;12.82;7.75;;;8.30;81.50;;;;;;5073771;28;20060;-37
2021/11/06 09:34:40;;;;;;;15.57;7.03;;;8.30;81.90;;;;;;5073854;28;20027;-38
2021/11/06 09:37:08;;;;;;;16.67;7.47;;;8.40;81.50;;;;;;5074052;28;20028;-37
2021/11/06 09:39:35;;;;;;;13.10;7.15;;;8.40;81.40;;;;;;5073869;28;20103;-37
2021/11/06 09:42:02;;;;;;;15.00;7.35;;;8.40;81.10;;;;;;5074381;28;20028;-37
2021/11/06 09:44:28;;;;;;;14.32;7.80;;;8.40;81.50;;;;;;5072101;28;20039;-37
2021/11/06 09:46:56;;;;;;;12.73;6.82;;;8.40;81.30;;;;;;5074158;28;20498;-37
2021/11/06 09:49:21;;;;;;;13.40;6.80;;;8.50;81.00;;;;;;5073789;28;20027;-38
2021/11/06 09:51:47;;;;;;;15.13;7.50;;;8.80;80.80;;;;;;5073626;28;20024;-37
2021/11/06 09:54:13;;;;;;;21.02;9.45;;;8.90;79.70;;;;;;5073297;28;20028;-37
2021/11/06 09:56:38;;;;;;;13.60;8.07;;;8.80;80.70;;;;;;5073178;28;20029;-37
2021/11/06 09:59:06;;;;;;;11.05;6.50;;;8.80;80.30;;;;;;5072698;28;20027;-38
2021/11/06 10:01:33;;;;;;;17.00;7.68;;;8.80;80.70;;;;;;5072113;28;20399;-37
2021/11/06 10:04:00;;;;;;;11.25;6.90;;;8.80;80.90;;;;;;5072468;28;20413;-37
2021/11/06 10:06:28;;;;;;;11.60;7.20;;;9.00;80.10;;;;;;5073197;28;20091;-38
2021/11/06 10:08:56;;;;;;;12.13;6.32;;;9.00;79.70;;;;;;5072079;28;20028;-37
2021/11/06 10:11:26;;;;;;;15.32;7.57;;;8.90;80.30;;;;;;5073484;28;20093;-37
2021/11/06 10:13:52;;;;;;;;;;;9.00;80.50;;;;;;5073325;28;20039;-37
2021/11/06 10:16:38;;;;;;;14.40;7.38;;;9.00;80.60;;;;;;5073197;28;19924;-37
2021/11/06 10:19:19;;;;;;;13.93;7.75;;;9.10;80.50;;;;;;5072042;28;20430;-38
2021/11/06 10:21:49;;;;;;;;;;;9.10;80.20;;;;;;5073506;28;20107;-38
2021/11/06 10:24:17;;;;;;;13.48;7.07;;;9.30;79.90;;;;;;5072885;28;19911;-38
2021/11/06 10:26:43;;;;;;;12.70;8.30;;;9.20;79.90;;;;;;5073091;28;20029;-38
2021/11/06 10:29:16;;;;;;;16.02;7.05;;;9.40;79.30;;;;;;5072869;28;20040;-38
2021/11/06 10:31:54;;;;;;;13.23;6.82;;;9.60;78.40;;;;;;5071611;28;20384;-37
2021/11/06 10:34:22;;;;;;;9.25;6.13;;;9.60;78.40;;;;;;5072410;28;20025;-37
2021/11/06 10:36:58;;;;;;;6.97;5.35;;;9.50;78.50;;;;;;5072570;28;20021;-38
2021/11/06 10:39:23;;;;;;;11.57;6.68;;;9.60;78.30;;;;;;5072731;28;20024;-38
2021/11/06 10:41:49;;;;;;;13.13;6.05;;;9.80;77.80;;;;;;5072814;28;20082;-37
2021/11/06 10:44:19;;;;;;;14.02;6.85;;;10.30;76.50;;;;;;5073029;28;20032;-36
2021/11/06 10:46:51;;;;;;;10.20;5.97;;;10.30;75.90;;;;;;5072533;28;20112;-37
2021/11/06 10:49:43;;;;;;;14.50;7.03;;;10.70;74.90;;;;;;5072795;28;20156;-39
2021/11/06 10:52:12;;;;;;;9.57;6.13;;;10.70;75.00;;;;;;5072553;28;20028;-38
2021/11/06 10:55:07;;;;;;;10.57;6.30;;;10.40;75.80;;;;;;5072777;28;20031;-36
2021/11/06 10:57:34;;;;;;;10.95;6.22;;;10.20;76.30;;;;;;5072468;28;20035;-36
2021/11/06 11:00:14;;;;;;;8.98;6.47;;;10.00;77.30;;;;;;5073138;28;20445;-38
2021/11/06 11:02:41;;;;;;;11.88;6.35;;;10.10;77.50;;;;;;5072334;28;20025;-37
2021/11/06 11:05:29;;;;;;;14.05;7.55;;;10.30;76.40;;;;;;5072318;28;20028;-38
2021/11/06 11:08:05;;;;;;;9.15;5.38;;;10.20;77.00;;;;;;5072357;28;20036;-39
2021/11/06 11:10:31;;;;;;;9.48;5.70;;;10.30;76.80;;;;;;5072688;28;20425;-37
2021/11/06 11:13:11;;;;;;;9.43;6.07;;;10.10;77.40;;;;;;5070810;28;20024;-39
2021/11/06 11:15:39;;;;;;;17.20;5.85;;;10.10;77.50;;;;;;5070582;28;20031;-37
2021/11/06 11:18:04;;;;;;;8.00;5.53;;;10.20;77.10;;;;;;5072511;28;20102;-37
2021/11/06 11:20:32;;;;;;;10.18;5.47;;;10.10;77.30;;;;;;5072307;28;20401;-38
2021/11/06 11:23:20;;;;;;;13.38;5.28;;;10.20;77.10;;;;;;5072045;28;20112;-37
2021/11/06 11:25:46;;;;;;;9.35;5.22;;;10.20;77.50;;;;;;5072695;28;20094;-37
2021/11/06 11:28:12;;;;;;;9.93;5.40;;;10.10;77.80;;;;;;5072147;28;20476;-37
2021/11/06 11:30:40;;;;;;;8.52;4.90;;;10.40;76.70;;;;;;5072961;28;20036;-39
2021/11/06 11:33:08;;;;;;;6.18;4.35;;;10.40;76.90;;;;;;5076191;28;20092;-38
2021/11/06 11:35:35;;;;;;;6.28;4.45;;;10.70;76.10;;;;;;5076436;28;20031;-37
2021/11/06 11:38:02;;;;;;;6.75;4.88;;;10.50;76.00;;;;;;5076064;28;20028;-36
2021/11/06 11:40:30;;;;;;;12.10;5.97;;;10.80;75.80;;;;;;5076268;28;20468;-36
2021/11/06 11:43:11;;;;;;;10.60;5.10;;;10.90;74.60;;;;;;5075788;28;20112;-36
2021/11/06 11:45:49;;;;;;;9.40;4.70;;;10.80;74.80;;;;;;5076502;28;20538;-37
2021/11/06 11:48:21;;;;;;;7.72;4.82;;;10.90;75.00;;;;;;5074714;28;20024;-38
2021/11/06 11:50:48;;;;;;;8.50;4.80;;;10.80;75.30;;;;;;5076578;28;20028;-37
2021/11/06 11:53:26;;;;;;;6.70;4.38;;;10.50;75.90;;;;;;5076256;28;20504;-38
2021/11/06 11:55:55;;;;;;;8.45;4.70;;;10.60;75.80;;;;;;5075937;28;20477;-37
2021/11/06 11:58:35;;;;;;;8.18;4.63;;;10.70;75.40;;;;;;5075904;28;20094;-39
2021/11/06 12:01:02;;;;;;;5.40;3.58;;;10.60;75.80;;;;;;5076087;28;20020;-37
2021/11/06 12:03:34;;;;;;;10.35;6.47;;;10.60;75.80;;;;;;5075979;28;20048;-37
2021/11/06 12:06:19;;;;;;;7.15;4.55;;;10.80;75.70;;;;;;5073805;28;20080;-38
2021/11/06 12:08:45;;;;;;;7.10;4.95;;;10.80;74.70;;;;;;5075564;28;20096;-39
2021/11/06 12:11:14;;;;;;;5.38;4.10;;;10.80;75.20;;;;;;5075773;28;20055;-37
2021/11/06 12:13:41;;;;;;;11.43;5.05;;;11.00;74.00;;;;;;5075454;28;20025;-37
2021/11/06 12:16:14;;;;;;;9.48;4.03;;;11.00;74.20;;;;;;5075585;28;20495;-37
2021/11/06 12:18:59;;;;;;;7.25;3.67;;;10.80;74.70;;;;;;5073992;28;20021;-38
2021/11/06 12:21:37;;;;;;;3.50;2.92;;;11.10;74.30;;;;;;5075616;28;20032;-38
2021/11/06 12:24:09;;;;;;;7.97;4.28;;;10.90;74.80;;;;;;5075613;28;20111;-39
2021/11/06 12:26:53;;;;;;;8.73;4.03;;;11.10;74.20;;;;;;5075129;28;20396;-37
2021/11/06 12:29:19;;;;;;;6.97;4.35;;;11.20;74.10;;;;;;5075255;28;20112;-37
2021/11/06 12:31:49;;;;;;;6.95;3.67;;;11.20;74.10;;;;;;5074879;28;20507;-37
2021/11/06 12:34:45;;;;;;;5.47;3.42;;;11.30;73.50;;;;;;5075079;28;20453;-36
2021/11/06 12:37:32;;;;;;;4.75;3.40;;;11.10;74.10;;;;;;5075197;28;20096;-37
2021/11/06 12:40:00;;;;;;;9.48;4.10;;;11.30;73.90;;;;;;5075650;28;20070;-36
2021/11/06 12:42:29;;;;;;;9.13;4.20;;;11.40;73.50;;;;;;5074761;28;20031;-37
2021/11/06 12:45:02;;;;;;;8.75;4.45;;;11.80;72.60;;;;;;5076036;28;20035;-42